createdAt,value
2019-03-01T00:00:17.720Z,1.40
2019-03-01T00:02:49.730Z,1.43
2019-03-01T00:05:45.614Z,1.43
2019-03-01T00:08:18.441Z,2.07
2019-03-01T00:11:08.170Z,1.63
2019-03-01T00:14:05.175Z,1.90
2019-03-01T00:17:13.899Z,1.53
2019-03-01T00:20:20.441Z,1.43
2019-03-01T00:23:30.155Z,1.00
2019-03-01T00:26:29.005Z,1.70
2019-03-01T00:29:27.284Z,1.47
2019-03-01T00:32:08.012Z,2.10
2019-03-01T00:35:00.818Z,1.63
2019-03-01T00:37:38.311Z,1.33
2019-03-01T00:40:32.442Z,3.77
2019-03-01T00:43:22.485Z,1.60
2019-03-01T00:45:52.673Z,1.30
2019-03-01T00:48:22.791Z,1.60
2019-03-01T00:50:52.937Z,1.20
2019-03-01T00:53:23.056Z,1.30
2019-03-01T00:55:54.986Z,1.70
2019-03-01T00:58:25.114Z,2.13
2019-03-01T01:00:55.254Z,1.73
2019-03-01T01:03:25.384Z,2.00
2019-03-01T01:05:55.509Z,2.70
2019-03-01T01:08:25.639Z,1.60
2019-03-01T01:10:55.772Z,1.77
2019-03-01T01:13:25.900Z,1.47
2019-03-01T01:15:56.076Z,2.03
2019-03-01T01:18:26.214Z,1.73
2019-03-01T01:20:56.350Z,1.43
2019-03-01T01:23:26.477Z,1.50
2019-03-01T01:25:56.608Z,1.20
2019-03-01T01:28:26.744Z,1.27
2019-03-01T01:30:56.881Z,2.20
2019-03-01T01:33:27.030Z,2.00
2019-03-01T01:35:57.159Z,1.20
2019-03-01T01:38:27.291Z,2.80
2019-03-01T01:40:57.418Z,1.83
2019-03-01T01:43:27.553Z,1.70
2019-03-01T01:45:57.685Z,1.83
2019-03-01T01:48:27.882Z,2.60
2019-03-01T01:50:58.009Z,1.13
2019-03-01T01:53:28.149Z,1.80
2019-03-01T01:55:58.277Z,1.20
2019-03-01T01:58:28.414Z,1.20
2019-03-01T02:00:58.541Z,1.60
2019-03-01T02:03:28.681Z,2.17
2019-03-01T02:05:58.811Z,1.40
2019-03-01T02:08:28.944Z,1.23
2019-03-01T02:11:37.919Z,1.40
2019-03-01T02:14:08.092Z,2.10
2019-03-01T02:16:38.202Z,1.63
2019-03-01T02:19:08.398Z,1.40
2019-03-01T02:21:38.519Z,1.83
2019-03-01T02:24:08.653Z,1.53
2019-03-01T02:26:38.783Z,1.87
2019-03-01T02:29:08.910Z,1.97
2019-03-01T02:31:42.636Z,1.30
2019-03-01T02:34:12.776Z,2.10
2019-03-01T02:36:42.902Z,1.83
2019-03-01T02:39:13.033Z,2.03
2019-03-01T02:41:43.161Z,1.53
2019-03-01T02:44:13.309Z,1.93
2019-03-01T02:46:43.435Z,1.53
2019-03-01T02:49:13.637Z,1.90
2019-03-01T02:51:43.781Z,1.70
2019-03-01T02:54:13.937Z,1.17
2019-03-01T02:56:44.072Z,1.47
2019-03-01T02:59:14.212Z,1.20
2019-03-01T03:01:44.340Z,2.27
2019-03-01T03:04:14.481Z,1.57
2019-03-01T03:06:46.242Z,1.37
2019-03-01T03:09:16.393Z,1.43
2019-03-01T03:11:46.500Z,1.50
2019-03-01T03:14:16.617Z,1.70
2019-03-01T03:16:46.823Z,1.30
2019-03-01T03:19:16.952Z,1.57
2019-03-01T03:21:47.084Z,1.20
2019-03-01T03:24:17.232Z,1.43
2019-03-01T03:26:48.564Z,2.17
2019-03-01T03:29:18.964Z,2.00
2019-03-01T03:31:49.101Z,2.07
2019-03-01T03:34:20.202Z,0.70
2019-03-01T03:36:51.296Z,1.97
2019-03-01T03:39:21.422Z,1.20
2019-03-01T03:41:51.569Z,1.50
2019-03-01T03:44:21.708Z,0.97
2019-03-01T03:46:51.852Z,2.33
2019-03-01T03:49:21.991Z,1.60
2019-03-01T03:51:52.127Z,1.03
2019-03-01T03:54:22.281Z,1.10
2019-03-01T03:56:52.444Z,1.30
2019-03-01T03:59:22.654Z,1.47
2019-03-01T04:01:52.777Z,1.17
2019-03-01T04:04:22.971Z,0.73
2019-03-01T04:06:53.101Z,0.90
2019-03-01T04:09:23.260Z,1.30
2019-03-01T04:11:53.420Z,0.83
2019-03-01T04:14:23.566Z,0.63
2019-03-01T04:16:53.697Z,0.80
2019-03-01T04:19:23.993Z,1.07
2019-03-01T04:21:54.141Z,1.30
2019-03-01T04:24:27.233Z,1.63
2019-03-01T04:26:58.266Z,2.00
2019-03-01T04:29:28.400Z,1.10
2019-03-01T04:31:58.529Z,1.30
2019-03-01T04:34:28.683Z,1.50
2019-03-01T04:36:58.810Z,1.23
2019-03-01T04:39:28.977Z,0.50
2019-03-01T04:41:59.093Z,1.43
2019-03-01T04:44:29.257Z,0.70
2019-03-01T04:46:59.447Z,1.07
2019-03-01T04:49:29.570Z,0.80
2019-03-01T04:51:59.717Z,1.07
2019-03-01T04:54:29.842Z,1.63
2019-03-01T04:57:00.092Z,0.80
2019-03-01T04:59:49.651Z,0.87
2019-03-01T05:02:19.786Z,0.70
2019-03-01T05:04:49.922Z,0.93
2019-03-01T05:07:21.076Z,1.30
2019-03-01T05:09:51.238Z,1.13
2019-03-01T05:12:21.367Z,1.37
2019-03-01T05:14:51.485Z,0.80
2019-03-01T05:17:21.626Z,1.43
2019-03-01T05:19:51.750Z,1.57
2019-03-01T05:22:21.916Z,0.93
2019-03-01T05:24:53.063Z,0.73
2019-03-01T05:27:23.194Z,0.90
2019-03-01T05:29:53.308Z,1.27
2019-03-01T05:32:23.478Z,0.60
2019-03-01T05:34:53.608Z,1.50
2019-03-01T05:37:23.771Z,0.87
2019-03-01T05:39:53.898Z,0.90
2019-03-01T05:42:24.110Z,1.00
2019-03-01T05:44:54.238Z,1.27
2019-03-01T05:47:24.402Z,0.73
2019-03-01T05:49:54.522Z,0.83
2019-03-01T05:52:24.727Z,0.63
2019-03-01T05:54:54.982Z,0.50
2019-03-01T05:57:25.106Z,0.63
2019-03-01T05:59:55.277Z,1.10
2019-03-01T06:02:49.318Z,0.53
2019-03-01T06:05:19.503Z,0.63
2019-03-01T06:07:54.458Z,0.80
2019-03-01T06:10:47.154Z,0.83
2019-03-01T06:13:33.926Z,0.80
2019-03-01T06:16:14.631Z,0.40
2019-03-01T06:19:35.859Z,0.80
2019-03-01T06:22:46.371Z,1.10
2019-03-01T06:25:32.915Z,1.23
2019-03-01T06:28:27.204Z,0.70
2019-03-01T06:31:18.204Z,0.70
2019-03-01T06:34:19.543Z,1.30
2019-03-01T06:36:57.268Z,0.93
2019-03-01T06:40:12.852Z,0.77
2019-03-01T06:43:02.303Z,0.50
2019-03-01T06:45:45.783Z,0.67
2019-03-01T06:48:17.563Z,1.13
2019-03-01T06:50:49.331Z,0.60
2019-03-01T06:53:19.472Z,0.50
2019-03-01T06:55:49.685Z,0.50
2019-03-01T06:58:21.629Z,0.70
2019-03-01T07:00:53.435Z,0.40
2019-03-01T07:03:23.569Z,1.00
2019-03-01T07:06:02.947Z,0.70
2019-03-01T07:08:25.607Z,0.60
2019-03-01T07:10:55.773Z,0.50
2019-03-01T07:13:25.883Z,0.50
2019-03-01T07:15:56.010Z,0.77
2019-03-01T07:18:26.143Z,0.73
2019-03-01T07:20:56.268Z,0.80
2019-03-01T07:23:26.415Z,0.90
2019-03-01T07:25:56.616Z,1.20
2019-03-01T07:28:26.816Z,0.87
2019-03-01T07:30:57.038Z,0.60
2019-03-01T07:33:27.158Z,0.77
2019-03-01T07:35:57.279Z,1.23
2019-03-01T07:38:27.405Z,1.07
2019-03-01T07:40:57.587Z,0.80
2019-03-01T07:43:27.724Z,0.40
2019-03-01T07:45:57.854Z,0.80
2019-03-01T07:48:27.992Z,0.73
2019-03-01T07:50:58.150Z,0.80
2019-03-01T07:53:28.329Z,0.83
2019-03-01T07:56:00.736Z,1.43
2019-03-01T07:58:30.317Z,0.80
2019-03-01T08:01:00.449Z,0.73
2019-03-01T08:03:30.653Z,0.50
2019-03-01T08:06:00.819Z,0.43
2019-03-01T08:08:30.909Z,0.50
2019-03-01T08:11:01.170Z,0.40
2019-03-01T08:13:31.324Z,0.30
2019-03-01T08:16:01.463Z,0.83
2019-03-01T08:18:31.596Z,0.80
2019-03-01T08:21:01.745Z,0.80
2019-03-01T08:23:35.071Z,1.03
2019-03-01T08:26:03.811Z,0.30
2019-03-01T08:28:33.936Z,0.50
2019-03-01T08:31:04.629Z,0.93
2019-03-01T08:33:34.881Z,0.43
2019-03-01T08:36:05.695Z,0.33
2019-03-01T08:38:37.097Z,0.73
2019-03-01T08:41:07.213Z,0.53
2019-03-01T08:43:37.372Z,1.67
2019-03-01T08:46:09.612Z,0.57
2019-03-01T08:48:39.341Z,0.80
2019-03-01T08:51:09.466Z,0.70
2019-03-01T08:53:39.631Z,0.60
2019-03-01T08:56:11.044Z,1.43
2019-03-01T08:58:42.524Z,0.90
2019-03-01T09:01:20.770Z,1.23
2019-03-01T09:04:01.267Z,1.90
2019-03-01T09:06:31.452Z,1.23
2019-03-01T09:09:01.591Z,0.73
2019-03-01T09:11:33.334Z,0.70
2019-03-01T09:14:03.481Z,1.47
2019-03-01T09:16:33.769Z,0.43
2019-03-01T09:19:03.926Z,0.70
2019-03-01T09:21:34.075Z,1.00
2019-03-01T09:24:04.275Z,0.70
2019-03-01T09:26:35.634Z,0.50
2019-03-01T09:29:05.852Z,0.20
2019-03-01T09:31:35.988Z,0.33
2019-03-01T09:34:06.367Z,0.67
2019-03-01T09:36:38.065Z,0.57
2019-03-01T09:39:09.340Z,0.60
2019-03-01T09:41:40.619Z,0.30
2019-03-01T09:44:13.273Z,0.70
2019-03-01T09:46:43.367Z,0.40
2019-03-01T09:49:13.496Z,0.30
2019-03-01T09:51:47.436Z,0.37
2019-03-01T09:54:15.469Z,0.60
2019-03-01T09:56:45.659Z,0.30
2019-03-01T09:59:15.793Z,0.60
2019-03-01T10:01:45.919Z,0.23
2019-03-01T10:04:16.054Z,0.60
2019-03-01T10:06:46.172Z,0.23
2019-03-01T10:09:16.355Z,0.47
2019-03-01T10:11:46.462Z,0.47
2019-03-01T10:14:16.641Z,0.67
2019-03-01T10:16:46.770Z,0.50
2019-03-01T10:19:16.900Z,0.40
2019-03-01T10:21:47.036Z,0.70
2019-03-01T10:24:17.156Z,1.60
2019-03-01T10:26:47.333Z,0.60
2019-03-01T10:29:17.516Z,0.50
2019-03-01T10:31:47.731Z,0.93
2019-03-01T10:34:17.923Z,0.90
2019-03-01T10:36:48.055Z,0.47
2019-03-01T10:39:18.202Z,0.80
2019-03-01T10:41:48.768Z,0.33
2019-03-01T10:44:19.005Z,0.47
2019-03-01T10:46:49.322Z,0.77
2019-03-01T10:49:19.456Z,0.30
2019-03-01T10:51:49.661Z,0.73
2019-03-01T10:54:19.759Z,0.50
2019-03-01T10:56:49.913Z,0.63
2019-03-01T10:59:20.039Z,1.37
2019-03-01T11:01:50.345Z,0.50
2019-03-01T11:04:20.478Z,0.57
2019-03-01T11:06:50.630Z,0.90
2019-03-01T11:09:20.775Z,0.73
2019-03-01T11:11:50.902Z,0.70
2019-03-01T11:14:21.093Z,0.53
2019-03-01T11:16:51.239Z,0.60
2019-03-01T11:19:23.311Z,0.40
2019-03-01T11:21:53.499Z,0.80
2019-03-01T11:24:23.628Z,0.97
2019-03-01T11:26:53.771Z,0.67
2019-03-01T11:29:23.901Z,0.60
2019-03-01T11:31:54.043Z,0.77
2019-03-01T11:34:24.165Z,0.60
2019-03-01T11:36:54.475Z,0.90
2019-03-01T11:39:24.773Z,1.07
2019-03-01T11:41:54.928Z,0.50
2019-03-01T11:44:25.064Z,1.17
2019-03-01T11:46:55.221Z,0.57
2019-03-01T11:49:25.343Z,0.87
2019-03-01T11:51:55.559Z,0.60
2019-03-01T11:54:25.695Z,0.53
2019-03-01T11:56:55.848Z,0.83
2019-03-01T11:59:26.067Z,0.77
2019-03-01T12:01:56.202Z,1.00
2019-03-01T12:04:26.409Z,1.30
2019-03-01T12:06:56.555Z,0.57
2019-03-01T12:09:26.691Z,1.03
2019-03-01T12:11:56.841Z,0.40
2019-03-01T12:14:26.957Z,0.40
2019-03-01T12:16:57.096Z,0.93
2019-03-01T12:19:27.226Z,0.67
2019-03-01T12:21:57.496Z,0.40
2019-03-01T12:24:27.635Z,0.60
2019-03-01T12:27:00.912Z,0.63
2019-03-01T12:29:31.229Z,0.80
2019-03-01T12:32:08.140Z,0.83
2019-03-01T12:34:38.355Z,1.10
2019-03-01T12:37:08.536Z,0.80
2019-03-01T12:39:38.734Z,1.03
2019-03-01T12:42:08.897Z,0.40
2019-03-01T12:44:39.027Z,0.70
2019-03-01T12:47:09.334Z,0.40
2019-03-01T12:49:39.486Z,2.40
2019-03-01T12:52:09.695Z,1.07
2019-03-01T12:54:39.832Z,0.47
2019-03-01T12:57:10.027Z,0.70
2019-03-01T12:59:41.210Z,0.80
2019-03-01T13:02:11.558Z,0.90
2019-03-01T13:04:41.753Z,0.30
2019-03-01T13:07:13.214Z,0.60
2019-03-01T13:09:43.894Z,0.60
2019-03-01T13:12:15.112Z,0.77
2019-03-01T13:14:45.237Z,1.10
2019-03-01T13:17:15.388Z,0.73
2019-03-01T13:19:45.687Z,0.50
2019-03-01T13:22:16.139Z,0.53
2019-03-01T13:24:46.348Z,0.73
2019-03-01T13:27:17.439Z,1.43
2019-03-01T13:29:48.711Z,0.60
2019-03-01T13:32:23.172Z,0.30
2019-03-01T13:34:57.832Z,0.40
2019-03-01T13:37:28.586Z,0.53
2019-03-01T13:39:59.222Z,0.90
2019-03-01T13:42:29.407Z,0.57
2019-03-01T13:44:59.531Z,0.87
2019-03-01T13:47:29.700Z,0.77
2019-03-01T13:50:05.678Z,0.60
2019-03-01T13:52:32.294Z,0.53
2019-03-01T13:55:02.483Z,0.20
2019-03-01T13:57:32.691Z,0.57
2019-03-01T14:00:02.946Z,0.50
2019-03-01T14:02:34.176Z,0.53
2019-03-01T14:05:04.749Z,0.63
2019-03-01T14:07:36.194Z,0.70
2019-03-01T14:10:16.588Z,1.30
2019-03-01T14:12:46.748Z,0.80
2019-03-01T14:15:18.046Z,1.03
2019-03-01T14:17:48.180Z,0.97
2019-03-01T14:20:22.272Z,1.00
2019-03-01T14:22:52.433Z,0.50
2019-03-01T14:25:22.550Z,0.60
2019-03-01T14:27:58.830Z,0.60
2019-03-01T14:30:33.072Z,0.57
2019-03-01T14:33:01.030Z,0.50
2019-03-01T14:35:31.595Z,0.80
2019-03-01T14:38:02.076Z,0.30
2019-03-01T14:40:32.448Z,0.67
2019-03-01T14:43:02.820Z,0.67
2019-03-01T14:45:34.848Z,0.87
2019-03-01T14:48:08.580Z,0.57
2019-03-01T14:50:37.007Z,0.83
2019-03-01T14:53:07.280Z,1.03
2019-03-01T14:55:55.627Z,0.70
2019-03-01T14:58:33.771Z,0.67
2019-03-01T15:01:27.602Z,3.07
2019-03-01T15:03:59.111Z,1.30
2019-03-01T15:06:29.248Z,0.47
2019-03-01T15:08:59.388Z,0.50
2019-03-01T15:11:29.510Z,0.87
2019-03-01T15:13:59.650Z,0.57
2019-03-01T15:16:29.779Z,0.43
2019-03-01T15:18:59.998Z,0.60
2019-03-01T15:21:30.126Z,0.53
2019-03-01T15:24:01.409Z,1.23
2019-03-01T15:26:31.677Z,0.47
2019-03-01T15:29:01.818Z,0.70
2019-03-01T15:31:31.953Z,0.80
2019-03-01T15:34:02.110Z,1.10
2019-03-01T15:36:32.234Z,0.60
2019-03-01T15:39:03.643Z,0.67
2019-03-01T15:41:35.401Z,0.70
2019-03-01T15:44:05.564Z,0.80
2019-03-01T15:46:35.684Z,0.80
2019-03-01T15:49:05.823Z,0.87
2019-03-01T15:51:38.206Z,0.93
2019-03-01T15:54:07.786Z,0.67
2019-03-01T15:56:39.527Z,0.90
2019-03-01T15:59:10.451Z,0.90
2019-03-01T16:01:43.727Z,0.67
2019-03-01T16:04:12.562Z,0.60
2019-03-01T16:06:42.763Z,0.77
2019-03-01T16:09:15.037Z,0.60
2019-03-01T16:11:45.157Z,0.57
2019-03-01T16:14:15.463Z,0.77
2019-03-01T16:16:49.061Z,0.77
2019-03-01T16:19:20.353Z,1.03
2019-03-01T16:21:50.475Z,0.90
2019-03-01T16:24:22.188Z,0.80
2019-03-01T16:26:52.507Z,1.03
2019-03-01T16:29:22.889Z,0.90
2019-03-01T16:31:53.216Z,0.97
2019-03-01T16:34:23.360Z,0.53
2019-03-01T16:36:54.534Z,1.40
2019-03-01T16:39:24.906Z,1.70
2019-03-01T16:41:55.252Z,0.83
2019-03-01T16:44:25.603Z,1.07
2019-03-01T16:46:56.579Z,1.03
2019-03-01T16:49:28.291Z,2.00
2019-03-01T16:51:58.475Z,1.60
2019-03-01T16:54:28.690Z,1.60
2019-03-01T16:56:58.833Z,0.80
2019-03-01T16:59:29.029Z,1.43
2019-03-01T17:01:59.345Z,1.13
2019-03-01T17:04:29.557Z,1.30
2019-03-01T17:06:59.967Z,1.27
2019-03-01T17:09:30.405Z,1.30
2019-03-01T17:12:00.843Z,1.57
2019-03-01T17:14:31.438Z,1.40
2019-03-01T17:17:01.863Z,1.10
2019-03-01T17:19:33.032Z,1.90
2019-03-01T17:22:03.160Z,1.30
2019-03-01T17:24:33.459Z,1.40
2019-03-01T17:27:05.568Z,1.17
2019-03-01T17:29:35.749Z,1.37
2019-03-01T17:32:08.348Z,1.77
2019-03-01T17:34:38.474Z,1.33
2019-03-01T17:37:08.693Z,1.23
2019-03-01T17:39:38.822Z,1.60
2019-03-01T17:42:09.089Z,1.80
2019-03-01T17:44:41.382Z,1.60
2019-03-01T17:47:11.560Z,2.13
2019-03-01T17:49:41.781Z,1.80
2019-03-01T17:52:11.921Z,1.40
2019-03-01T17:54:42.052Z,1.43
2019-03-01T17:57:12.182Z,2.03
2019-03-01T17:59:44.618Z,1.50
2019-03-01T18:02:14.991Z,1.57
2019-03-01T18:04:45.836Z,1.87
2019-03-01T18:07:15.982Z,1.80
2019-03-01T18:09:46.128Z,2.03
2019-03-01T18:12:17.439Z,2.43
2019-03-01T18:14:48.079Z,3.00
2019-03-01T18:17:18.235Z,2.13
2019-03-01T18:19:48.351Z,2.33
2019-03-01T18:22:18.510Z,2.70
2019-03-01T18:24:49.924Z,3.10
2019-03-01T18:27:20.863Z,2.47
2019-03-01T18:29:50.991Z,1.43
2019-03-01T18:32:21.211Z,2.03
2019-03-01T18:34:52.513Z,2.47
2019-03-01T18:37:22.661Z,1.50
2019-03-01T18:39:52.790Z,2.23
2019-03-01T18:42:23.000Z,2.60
2019-03-01T18:44:53.127Z,2.07
2019-03-01T18:47:23.339Z,1.67
2019-03-01T18:49:55.295Z,2.50
2019-03-01T18:52:25.446Z,2.03
2019-03-01T18:54:55.576Z,2.27
2019-03-01T18:57:25.718Z,2.57
2019-03-01T18:59:56.494Z,2.00
2019-03-01T19:02:28.773Z,2.03
2019-03-01T19:05:00.675Z,3.33
2019-03-01T19:07:31.517Z,2.40
2019-03-01T19:10:01.699Z,2.83
2019-03-01T19:12:32.558Z,1.93
2019-03-01T19:15:02.714Z,2.47
2019-03-01T19:17:36.777Z,1.57
2019-03-01T19:20:12.931Z,2.87
2019-03-01T19:22:43.118Z,2.33
2019-03-01T19:25:15.300Z,3.27
2019-03-01T19:27:47.095Z,3.33
2019-03-01T19:30:25.541Z,2.13
2019-03-01T19:32:58.945Z,2.23
2019-03-01T19:35:29.769Z,2.70
2019-03-01T19:38:00.973Z,2.80
2019-03-01T19:40:31.076Z,2.00
2019-03-01T19:43:01.302Z,2.87
2019-03-01T19:45:31.542Z,2.60
2019-03-01T19:48:03.358Z,2.60
2019-03-01T19:50:33.686Z,3.07
2019-03-01T19:53:03.826Z,3.40
2019-03-01T19:55:33.976Z,2.67
2019-03-01T19:58:04.132Z,2.90
2019-03-01T20:00:35.308Z,3.97
2019-03-01T20:03:06.593Z,3.43
2019-03-01T20:05:41.813Z,2.30
2019-03-01T20:08:12.072Z,2.40
2019-03-01T20:10:42.200Z,2.60
2019-03-01T20:13:13.081Z,2.73
2019-03-01T20:15:46.178Z,4.07
2019-03-01T20:18:16.080Z,2.93
2019-03-01T20:20:46.267Z,2.53
2019-03-01T20:23:16.508Z,3.10
2019-03-01T20:25:47.487Z,3.13
2019-03-01T20:28:18.563Z,2.47
2019-03-01T20:30:48.676Z,3.10
2019-03-01T20:33:18.918Z,2.80
2019-03-01T20:35:49.117Z,2.70
2019-03-01T20:38:20.280Z,3.27
2019-03-01T20:40:50.478Z,2.93
2019-03-01T20:43:20.694Z,3.10
2019-03-01T20:45:50.825Z,4.07
2019-03-01T20:48:20.954Z,2.60
2019-03-01T20:50:51.928Z,3.10
2019-03-01T20:53:22.435Z,2.60
2019-03-01T20:55:52.657Z,3.17
2019-03-01T20:58:22.785Z,3.07
2019-03-01T21:00:52.953Z,3.00
2019-03-01T21:03:24.100Z,2.93
2019-03-01T21:05:55.288Z,3.00
2019-03-01T21:08:28.701Z,3.37
2019-03-01T21:10:57.482Z,2.80
2019-03-01T21:13:27.619Z,3.07
2019-03-01T21:15:57.830Z,3.30
2019-03-01T21:18:30.741Z,2.93
2019-03-01T21:21:00.722Z,3.20
2019-03-01T21:23:30.926Z,2.83
2019-03-01T21:26:03.711Z,2.73
2019-03-01T21:28:36.616Z,2.77
2019-03-01T21:31:05.819Z,3.27
2019-03-01T21:33:36.246Z,2.57
2019-03-01T21:36:06.382Z,2.87
2019-03-01T21:38:36.506Z,2.47
2019-03-01T21:41:09.784Z,3.40
2019-03-01T21:43:38.459Z,2.97
2019-03-01T21:46:08.665Z,3.03
2019-03-01T21:48:38.807Z,3.53
2019-03-01T21:51:09.020Z,2.70
2019-03-01T21:53:39.825Z,2.57
2019-03-01T21:56:12.159Z,2.80
2019-03-01T21:58:42.907Z,2.60
2019-03-01T22:01:13.890Z,2.30
2019-03-01T22:03:44.045Z,3.17
2019-03-01T22:06:14.253Z,3.00
2019-03-01T22:08:44.839Z,2.77
2019-03-01T22:11:16.661Z,2.67
2019-03-01T22:13:46.967Z,2.40
2019-03-01T22:16:17.144Z,2.37
2019-03-01T22:18:47.281Z,1.80
2019-03-01T22:21:22.609Z,3.30
2019-03-01T22:23:51.566Z,3.13
2019-03-01T22:26:22.234Z,2.03
2019-03-01T22:28:52.369Z,2.30
2019-03-01T22:31:32.620Z,3.20
2019-03-01T22:34:02.692Z,2.77
2019-03-01T22:36:32.899Z,3.30
2019-03-01T22:39:04.361Z,2.53
2019-03-01T22:41:39.253Z,2.80
2019-03-01T22:44:08.106Z,3.13
2019-03-01T22:46:38.363Z,2.60
2019-03-01T22:49:08.490Z,3.63
2019-03-01T22:51:38.621Z,2.97
2019-03-01T22:54:08.762Z,3.03
2019-03-01T22:56:38.904Z,2.73
2019-03-01T22:59:11.920Z,3.07
2019-03-01T23:01:41.348Z,2.67
2019-03-01T23:04:14.627Z,2.97
2019-03-01T23:06:47.549Z,3.30
2019-03-01T23:09:19.061Z,3.03
2019-03-01T23:11:49.193Z,2.70
2019-03-01T23:14:19.337Z,2.90
2019-03-01T23:16:50.641Z,3.33
2019-03-01T23:19:21.289Z,2.07
2019-03-01T23:21:51.912Z,2.70
2019-03-01T23:24:23.004Z,2.50
2019-03-01T23:26:53.551Z,3.23
2019-03-01T23:29:25.042Z,2.00
2019-03-01T23:31:55.185Z,2.13
2019-03-01T23:34:25.303Z,3.77
2019-03-01T23:36:56.036Z,2.60
2019-03-01T23:39:26.427Z,3.33
2019-03-01T23:41:56.555Z,2.30
2019-03-01T23:44:26.679Z,2.83
2019-03-01T23:46:59.515Z,2.83
2019-03-01T23:49:29.630Z,2.93
2019-03-01T23:51:59.782Z,3.13
2019-03-01T23:54:29.927Z,3.20
2019-03-01T23:57:01.926Z,2.30
2019-03-01T23:59:32.847Z,2.33
